createdAt,value
2019-01-30T00:01:57.086Z,47.51
2019-01-30T00:07:00.554Z,47.47
2019-01-30T00:12:04.194Z,47.46
2019-01-30T00:17:07.657Z,47.47
2019-01-30T00:22:11.126Z,47.46
2019-01-30T00:27:14.596Z,47.46
2019-01-30T00:32:18.056Z,47.40
2019-01-30T00:37:21.531Z,47.71
2019-01-30T00:42:24.998Z,47.71
2019-01-30T00:47:28.464Z,47.37
2019-01-30T00:52:31.933Z,47.38
2019-01-30T00:57:35.396Z,47.36
2019-01-30T01:02:38.949Z,47.38
2019-01-30T01:07:42.734Z,47.43
2019-01-30T01:12:46.263Z,47.40
2019-01-30T01:17:49.735Z,47.38
2019-01-30T01:22:53.202Z,47.38
2019-01-30T01:27:56.700Z,47.37
2019-01-30T01:33:00.159Z,47.35
2019-01-30T01:38:03.630Z,47.40
2019-01-30T01:43:07.088Z,47.40
2019-01-30T01:48:10.552Z,47.47
2019-01-30T01:53:14.016Z,47.46
2019-01-30T01:58:17.480Z,47.41
2019-01-30T02:03:20.944Z,47.40
2019-01-30T02:08:24.409Z,47.45
2019-01-30T02:13:27.881Z,47.39
2019-01-30T02:18:31.337Z,47.39
2019-01-30T02:23:34.799Z,47.33
2019-01-30T02:28:38.263Z,47.29
2019-01-30T02:33:41.727Z,47.30
2019-01-30T02:38:45.196Z,47.25
2019-01-30T02:43:48.666Z,47.36
2019-01-30T02:48:52.124Z,47.34
2019-01-30T02:53:55.622Z,47.39
2019-01-30T02:58:59.091Z,47.37
2019-01-30T03:04:02.547Z,47.32
2019-01-30T03:09:07.950Z,47.29
2019-01-30T03:14:11.416Z,47.25
2019-01-30T03:19:14.880Z,47.24
2019-01-30T03:24:18.346Z,47.16
2019-01-30T03:29:21.816Z,47.14
2019-01-30T03:34:25.288Z,47.15
2019-01-30T03:39:28.739Z,47.10
2019-01-30T03:44:32.208Z,47.07
2019-01-30T03:49:35.694Z,47.04
2019-01-30T03:54:39.157Z,47.03
2019-01-30T03:59:42.646Z,47.05
2019-01-30T04:04:46.103Z,47.07
2019-01-30T04:09:49.590Z,47.11
2019-01-30T04:14:53.077Z,47.18
2019-01-30T04:19:56.554Z,47.21
2019-01-30T04:25:00.033Z,47.20
2019-01-30T04:30:03.783Z,47.23
2019-01-30T04:35:07.600Z,47.17
2019-01-30T04:40:14.266Z,47.25
2019-01-30T04:45:23.047Z,47.17
2019-01-30T04:50:26.529Z,47.16
2019-01-30T04:55:30.009Z,47.20
2019-01-30T05:00:33.493Z,47.10
2019-01-30T05:05:36.972Z,47.11
2019-01-30T05:10:40.458Z,47.04
2019-01-30T05:15:43.956Z,47.02
2019-01-30T05:20:47.501Z,46.99
2019-01-30T05:25:50.984Z,46.99
2019-01-30T05:30:54.472Z,47.00
2019-01-30T05:35:57.962Z,47.01
2019-01-30T05:41:01.452Z,47.02
2019-01-30T05:46:04.927Z,47.05
2019-01-30T05:51:08.409Z,47.06
2019-01-30T05:56:11.891Z,47.07
2019-01-30T06:01:15.374Z,47.08
2019-01-30T06:06:18.856Z,47.10
2019-01-30T06:11:22.336Z,47.05
2019-01-30T06:16:25.821Z,47.14
2019-01-30T06:21:29.299Z,47.13
2019-01-30T06:26:32.783Z,47.12
2019-01-30T06:31:36.260Z,47.18
2019-01-30T06:36:39.742Z,47.14
2019-01-30T06:41:43.222Z,47.14
2019-01-30T06:46:46.708Z,47.10
2019-01-30T06:51:50.187Z,47.09
2019-01-30T06:56:53.663Z,47.05
2019-01-30T07:01:57.151Z,46.98
2019-01-30T07:07:00.634Z,47.00
2019-01-30T07:12:04.187Z,47.02
2019-01-30T07:17:07.678Z,47.04
2019-01-30T07:22:11.215Z,47.02
2019-01-30T07:27:14.705Z,46.99
2019-01-30T07:32:18.183Z,46.96
2019-01-30T07:37:21.669Z,46.90
2019-01-30T07:42:25.148Z,46.83
2019-01-30T07:47:28.635Z,46.77
2019-01-30T07:52:32.777Z,46.70
2019-01-30T07:57:36.386Z,46.66
2019-01-30T08:02:39.868Z,46.59
2019-01-30T08:07:43.356Z,27.73
2019-01-30T08:12:46.828Z,24.84
2019-01-30T08:17:50.318Z,26.95
2019-01-30T08:22:53.815Z,29.29
2019-01-30T08:27:57.448Z,32.47
2019-01-30T08:33:05.860Z,35.06
2019-01-30T08:38:06.513Z,36.41
2019-01-30T08:43:10.003Z,37.29
2019-01-30T08:48:13.486Z,38.13
2019-01-30T08:53:16.967Z,38.70
2019-01-30T08:58:20.458Z,39.39
2019-01-30T09:03:23.937Z,39.90
2019-01-30T09:08:27.420Z,40.24
2019-01-30T09:13:30.919Z,40.70
2019-01-30T09:18:34.386Z,40.87
2019-01-30T09:23:37.870Z,41.06
2019-01-30T09:28:41.351Z,41.26
2019-01-30T09:33:44.838Z,41.62
2019-01-30T09:38:48.317Z,42.34
2019-01-30T09:43:51.799Z,42.80
2019-01-30T09:48:55.274Z,43.08
2019-01-30T09:53:58.751Z,43.48
2019-01-30T09:59:02.233Z,43.93
2019-01-30T10:04:05.712Z,44.36
2019-01-30T10:09:09.630Z,44.59
2019-01-30T10:14:13.107Z,45.36
2019-01-30T10:19:16.588Z,46.28
2019-01-30T10:24:20.078Z,46.50
2019-01-30T10:29:23.557Z,46.29
2019-01-30T10:34:27.037Z,46.66
2019-01-30T10:39:30.519Z,48.00
2019-01-30T10:44:34.002Z,47.33
2019-01-30T10:49:37.479Z,47.32
2019-01-30T10:54:40.961Z,48.30
2019-01-30T10:59:44.441Z,48.44
2019-01-30T11:04:47.925Z,48.55
2019-01-30T11:09:51.405Z,48.46
2019-01-30T11:14:54.885Z,48.08
2019-01-30T11:19:58.365Z,47.71
2019-01-30T11:25:01.897Z,47.56
2019-01-30T11:30:08.801Z,47.57
2019-01-30T11:35:12.519Z,47.96
2019-01-30T11:40:20.868Z,48.26
2019-01-30T11:45:27.098Z,49.00
2019-01-30T11:50:30.748Z,48.86
2019-01-30T11:55:34.232Z,48.84
2019-01-30T12:00:51.960Z,48.77
2019-01-30T12:05:55.446Z,48.83
2019-01-30T12:10:59.004Z,25.34
2019-01-30T12:16:02.490Z,24.68
2019-01-30T12:21:05.974Z,31.01
2019-01-30T12:26:09.451Z,35.38
2019-01-30T12:31:12.933Z,36.42
2019-01-30T12:36:16.421Z,37.38
2019-01-30T12:41:19.904Z,38.19
2019-01-30T12:46:23.390Z,38.76
2019-01-30T12:51:26.872Z,39.22
2019-01-30T12:56:30.354Z,39.67
2019-01-30T13:01:33.880Z,39.98
2019-01-30T13:06:37.316Z,40.35
2019-01-30T13:11:40.800Z,40.61
2019-01-30T13:16:44.288Z,40.80
2019-01-30T13:21:47.751Z,40.82
2019-01-30T13:26:51.211Z,41.53
2019-01-30T13:31:54.677Z,42.56
2019-01-30T13:36:58.147Z,42.84
2019-01-30T13:42:01.610Z,43.20
2019-01-30T13:47:05.611Z,43.38
2019-01-30T13:52:09.106Z,43.58
2019-01-30T13:57:12.550Z,43.87
2019-01-30T14:02:16.028Z,44.02
2019-01-30T14:07:19.486Z,44.25
2019-01-30T14:12:23.857Z,44.28
2019-01-30T14:17:27.320Z,44.41
2019-01-30T14:22:30.814Z,44.59
2019-01-30T14:27:34.271Z,45.13
2019-01-30T14:32:37.757Z,44.85
2019-01-30T14:37:41.204Z,44.80
2019-01-30T14:42:44.737Z,44.70
2019-01-30T14:47:50.108Z,44.70
2019-01-30T14:52:53.672Z,44.76
2019-01-30T14:57:57.303Z,44.83
2019-01-30T15:03:00.769Z,44.89
2019-01-30T15:08:04.404Z,44.98
2019-01-30T15:13:08.117Z,45.06
2019-01-30T15:18:11.579Z,45.20
2019-01-30T15:23:15.040Z,45.30
2019-01-30T15:28:18.506Z,45.91
2019-01-30T15:33:21.968Z,45.93
2019-01-30T15:38:25.433Z,46.20
2019-01-30T15:43:28.900Z,46.13
2019-01-30T15:48:32.364Z,46.04
2019-01-30T15:53:35.829Z,46.27
2019-01-30T15:58:39.297Z,46.24
2019-01-30T16:03:42.765Z,46.26
2019-01-30T16:08:46.231Z,46.15
2019-01-30T16:13:49.777Z,46.15
2019-01-30T16:18:53.240Z,46.12
2019-01-30T16:23:56.705Z,46.96
2019-01-30T16:29:00.174Z,47.70
2019-01-30T16:34:03.641Z,47.34
2019-01-30T16:39:08.745Z,47.60
2019-01-30T16:44:12.238Z,47.61
2019-01-30T16:49:15.681Z,47.71
2019-01-30T16:54:19.146Z,47.84
2019-01-30T16:59:22.608Z,47.93
2019-01-30T17:04:26.140Z,47.56
2019-01-30T17:09:29.608Z,47.33
2019-01-30T17:14:33.083Z,47.17
2019-01-30T17:19:36.548Z,46.99
2019-01-30T17:24:40.011Z,46.77
2019-01-30T17:29:43.476Z,46.80
2019-01-30T17:34:46.939Z,46.96
2019-01-30T17:39:50.412Z,46.86
2019-01-30T17:44:53.879Z,47.02
2019-01-30T17:49:58.876Z,47.25
2019-01-30T17:55:04.541Z,47.09
2019-01-30T18:00:16.651Z,47.12
2019-01-30T18:05:20.286Z,47.19
2019-01-30T18:10:23.824Z,47.18
2019-01-30T18:15:27.370Z,47.25
2019-01-30T18:20:30.833Z,47.19
2019-01-30T18:25:34.304Z,47.23
2019-01-30T18:30:37.770Z,47.57
2019-01-30T18:35:41.234Z,47.52
2019-01-30T18:40:46.811Z,47.77
2019-01-30T18:45:50.293Z,47.86
2019-01-30T18:50:56.706Z,47.78
2019-01-30T18:55:58.952Z,47.81
2019-01-30T19:01:02.419Z,47.38
2019-01-30T19:06:06.123Z,46.96
2019-01-30T19:11:09.595Z,46.80
2019-01-30T19:16:13.061Z,46.70
2019-01-30T19:21:17.091Z,46.59
2019-01-30T19:26:20.556Z,46.59
2019-01-30T19:31:24.019Z,46.58
2019-01-30T19:36:27.486Z,46.59
2019-01-30T19:41:30.947Z,46.63
2019-01-30T19:46:34.413Z,46.67
2019-01-30T19:51:37.876Z,46.61
2019-01-30T19:56:41.343Z,46.67
2019-01-30T20:01:44.802Z,46.78
2019-01-30T20:06:48.265Z,46.83
2019-01-30T20:11:51.729Z,46.83
2019-01-30T20:16:55.197Z,46.85
2019-01-30T20:21:58.660Z,46.86
2019-01-30T20:27:02.140Z,46.83
2019-01-30T20:32:05.781Z,46.80
2019-01-30T20:37:09.250Z,46.81
2019-01-30T20:42:12.712Z,46.79
2019-01-30T20:47:16.181Z,46.80
2019-01-30T20:52:19.648Z,46.82
2019-01-30T20:57:23.116Z,46.87
2019-01-30T21:02:26.587Z,46.89
2019-01-30T21:07:37.135Z,46.88
2019-01-30T21:12:35.240Z,46.90
2019-01-30T21:17:38.705Z,46.94
2019-01-30T21:22:42.175Z,46.92
2019-01-30T21:27:45.635Z,46.92
2019-01-30T21:32:49.246Z,46.89
2019-01-30T21:37:52.710Z,46.90
2019-01-30T21:42:56.373Z,46.90
2019-01-30T21:47:59.843Z,46.88
2019-01-30T21:53:03.328Z,46.93
2019-01-30T21:58:06.887Z,46.89
2019-01-30T22:03:10.374Z,46.92
2019-01-30T22:08:13.857Z,46.95
2019-01-30T22:13:17.343Z,46.97
2019-01-30T22:18:20.825Z,46.99
2019-01-30T22:23:24.309Z,46.98
2019-01-30T22:28:27.805Z,47.00
2019-01-30T22:33:31.360Z,46.99
2019-01-30T22:38:34.843Z,47.03
2019-01-30T22:43:38.329Z,47.00
2019-01-30T22:48:41.813Z,47.02
2019-01-30T22:53:45.298Z,47.02
2019-01-30T22:58:48.783Z,47.05
2019-01-30T23:04:04.037Z,47.04
2019-01-30T23:09:39.442Z,47.06
2019-01-30T23:14:46.750Z,47.08
2019-01-30T23:19:53.350Z,47.10
2019-01-30T23:25:16.160Z,47.08
2019-01-30T23:30:34.700Z,47.10
2019-01-30T23:36:03.843Z,47.10
2019-01-30T23:41:46.892Z,47.13
2019-01-30T23:47:09.716Z,47.15
2019-01-30T23:52:35.685Z,47.22
2019-01-30T23:57:51.352Z,47.24
